sensor_id;sensor_type;location;lat;lon;timestamp;P1;durP1;ratioP1;P2;durP2;ratioP2
11488;SDS011;5801;50.804;12.638;2024-02-28T00:00:13;14.75;;;7.20;;
11488;SDS011;5801;50.804;12.638;2024-02-28T00:02:39;14.32;;;7.68;;
11488;SDS011;5801;50.804;12.638;2024-02-28T00:05:05;18.23;;;8.75;;
11488;SDS011;5801;50.804;12.638;2024-02-28T00:07:31;16.95;;;8.93;;
11488;SDS011;5801;50.804;12.638;2024-02-28T00:09:57;19.05;;;8.48;;
11488;SDS011;5801;50.804;12.638;2024-02-28T00:12:23;20.70;;;8.90;;
11488;SDS011;5801;50.804;12.638;2024-02-28T00:14:52;23.02;;;10.50;;
11488;SDS011;5801;50.804;12.638;2024-02-28T00:17:18;25.45;;;10.23;;
11488;SDS011;5801;50.804;12.638;2024-02-28T00:19:44;19.85;;;8.90;;
11488;SDS011;5801;50.804;12.638;2024-02-28T00:22:10;16.17;;;8.02;;
11488;SDS011;5801;50.804;12.638;2024-02-28T00:24:36;21.58;;;10.15;;
11488;SDS011;5801;50.804;12.638;2024-02-28T00:27:02;21.00;;;9.63;;
11488;SDS011;5801;50.804;12.638;2024-02-28T00:29:28;18.55;;;9.15;;
11488;SDS011;5801;50.804;12.638;2024-02-28T00:31:54;18.35;;;9.30;;
11488;SDS011;5801;50.804;12.638;2024-02-28T00:34:20;19.90;;;9.63;;
11488;SDS011;5801;50.804;12.638;2024-02-28T00:36:46;19.15;;;9.40;;
11488;SDS011;5801;50.804;12.638;2024-02-28T00:39:12;21.17;;;10.63;;
11488;SDS011;5801;50.804;12.638;2024-02-28T00:41:38;21.33;;;10.35;;
11488;SDS011;5801;50.804;12.638;2024-02-28T00:44:04;19.45;;;9.82;;
11488;SDS011;5801;50.804;12.638;2024-02-28T00:46:30;17.98;;;10.30;;
11488;SDS011;5801;50.804;12.638;2024-02-28T00:48:56;22.45;;;10.23;;
11488;SDS011;5801;50.804;12.638;2024-02-28T00:51:22;20.10;;;10.38;;
11488;SDS011;5801;50.804;12.638;2024-02-28T00:53:49;23.13;;;10.63;;
11488;SDS011;5801;50.804;12.638;2024-02-28T00:56:14;21.25;;;9.93;;
11488;SDS011;5801;50.804;12.638;2024-02-28T00:58:40;17.60;;;9.60;;
11488;SDS011;5801;50.804;12.638;2024-02-28T01:01:06;20.35;;;10.15;;
11488;SDS011;5801;50.804;12.638;2024-02-28T01:03:32;21.60;;;10.38;;
11488;SDS011;5801;50.804;12.638;2024-02-28T01:05:58;22.27;;;10.35;;
11488;SDS011;5801;50.804;12.638;2024-02-28T01:08:26;19.42;;;10.27;;
11488;SDS011;5801;50.804;12.638;2024-02-28T01:10:52;31.38;;;10.90;;
11488;SDS011;5801;50.804;12.638;2024-02-28T01:13:18;21.40;;;10.18;;
11488;SDS011;5801;50.804;12.638;2024-02-28T01:15:44;33.97;;;11.40;;
11488;SDS011;5801;50.804;12.638;2024-02-28T01:18:10;21.15;;;10.20;;
11488;SDS011;5801;50.804;12.638;2024-02-28T01:20:36;21.30;;;11.85;;
11488;SDS011;5801;50.804;12.638;2024-02-28T01:23:02;22.70;;;10.40;;
11488;SDS011;5801;50.804;12.638;2024-02-28T01:25:29;20.75;;;11.30;;
11488;SDS011;5801;50.804;12.638;2024-02-28T01:27:58;28.27;;;12.13;;
11488;SDS011;5801;50.804;12.638;2024-02-28T01:30:23;21.65;;;11.15;;
11488;SDS011;5801;50.804;12.638;2024-02-28T01:32:49;27.27;;;11.35;;
11488;SDS011;5801;50.804;12.638;2024-02-28T01:35:15;26.08;;;12.25;;
11488;SDS011;5801;50.804;12.638;2024-02-28T01:37:41;23.30;;;11.30;;
11488;SDS011;5801;50.804;12.638;2024-02-28T01:40:07;20.80;;;11.00;;
11488;SDS011;5801;50.804;12.638;2024-02-28T01:42:34;23.20;;;10.52;;
11488;SDS011;5801;50.804;12.638;2024-02-28T01:45:00;23.90;;;10.32;;
11488;SDS011;5801;50.804;12.638;2024-02-28T01:47:26;20.02;;;10.85;;
11488;SDS011;5801;50.804;12.638;2024-02-28T01:49:52;28.23;;;11.85;;
11488;SDS011;5801;50.804;12.638;2024-02-28T01:52:19;31.90;;;11.75;;
11488;SDS011;5801;50.804;12.638;2024-02-28T01:54:45;35.17;;;13.40;;
11488;SDS011;5801;50.804;12.638;2024-02-28T01:57:11;30.00;;;12.18;;
11488;SDS011;5801;50.804;12.638;2024-02-28T01:59:37;22.23;;;10.80;;
11488;SDS011;5801;50.804;12.638;2024-02-28T02:02:03;35.47;;;13.02;;
11488;SDS011;5801;50.804;12.638;2024-02-28T02:04:29;21.67;;;10.80;;
11488;SDS011;5801;50.804;12.638;2024-02-28T02:06:54;25.55;;;11.05;;
11488;SDS011;5801;50.804;12.638;2024-02-28T02:09:23;27.55;;;11.18;;
11488;SDS011;5801;50.804;12.638;2024-02-28T02:11:50;27.85;;;12.23;;
11488;SDS011;5801;50.804;12.638;2024-02-28T02:14:16;23.13;;;10.68;;
11488;SDS011;5801;50.804;12.638;2024-02-28T02:16:42;21.92;;;10.65;;
11488;SDS011;5801;50.804;12.638;2024-02-28T02:19:08;20.60;;;10.73;;
11488;SDS011;5801;50.804;12.638;2024-02-28T02:21:48;20.08;;;10.70;;
11488;SDS011;5801;50.804;12.638;2024-02-28T02:24:17;24.38;;;11.18;;
11488;SDS011;5801;50.804;12.638;2024-02-28T02:26:43;23.88;;;10.15;;
11488;SDS011;5801;50.804;12.638;2024-02-28T02:29:11;25.50;;;11.65;;
11488;SDS011;5801;50.804;12.638;2024-02-28T02:31:38;29.95;;;11.93;;
11488;SDS011;5801;50.804;12.638;2024-02-28T02:34:05;30.35;;;13.18;;
11488;SDS011;5801;50.804;12.638;2024-02-28T02:36:31;34.80;;;14.65;;
11488;SDS011;5801;50.804;12.638;2024-02-28T02:38:57;22.35;;;10.65;;
11488;SDS011;5801;50.804;12.638;2024-02-28T02:41:22;20.23;;;10.32;;
11488;SDS011;5801;50.804;12.638;2024-02-28T02:43:48;21.77;;;10.18;;
11488;SDS011;5801;50.804;12.638;2024-02-28T02:46:14;23.63;;;11.43;;
11488;SDS011;5801;50.804;12.638;2024-02-28T02:48:40;30.67;;;14.57;;
11488;SDS011;5801;50.804;12.638;2024-02-28T02:51:06;20.15;;;9.73;;
11488;SDS011;5801;50.804;12.638;2024-02-28T02:53:32;27.77;;;11.88;;
11488;SDS011;5801;50.804;12.638;2024-02-28T02:55:59;19.38;;;10.13;;
11488;SDS011;5801;50.804;12.638;2024-02-28T02:58:25;19.17;;;10.23;;
11488;SDS011;5801;50.804;12.638;2024-02-28T03:00:51;16.60;;;9.43;;
11488;SDS011;5801;50.804;12.638;2024-02-28T03:03:17;20.30;;;9.82;;
11488;SDS011;5801;50.804;12.638;2024-02-28T03:05:43;27.88;;;12.00;;
11488;SDS011;5801;50.804;12.638;2024-02-28T03:08:09;28.55;;;11.48;;
11488;SDS011;5801;50.804;12.638;2024-02-28T03:10:35;23.48;;;9.73;;
11488;SDS011;5801;50.804;12.638;2024-02-28T03:13:01;27.98;;;13.30;;
11488;SDS011;5801;50.804;12.638;2024-02-28T03:15:27;25.40;;;10.80;;
11488;SDS011;5801;50.804;12.638;2024-02-28T03:17:53;29.67;;;14.38;;
11488;SDS011;5801;50.804;12.638;2024-02-28T03:20:19;23.35;;;12.40;;
11488;SDS011;5801;50.804;12.638;2024-02-28T03:22:46;25.92;;;10.48;;
11488;SDS011;5801;50.804;12.638;2024-02-28T03:25:12;16.17;;;9.73;;
11488;SDS011;5801;50.804;12.638;2024-02-28T03:27:38;21.95;;;9.90;;
11488;SDS011;5801;50.804;12.638;2024-02-28T03:30:04;17.75;;;9.82;;
11488;SDS011;5801;50.804;12.638;2024-02-28T03:32:31;19.73;;;9.82;;
11488;SDS011;5801;50.804;12.638;2024-02-28T03:34:57;17.30;;;9.05;;
11488;SDS011;5801;50.804;12.638;2024-02-28T03:37:23;19.02;;;9.48;;
11488;SDS011;5801;50.804;12.638;2024-02-28T03:39:49;18.27;;;8.77;;
11488;SDS011;5801;50.804;12.638;2024-02-28T03:42:15;17.95;;;9.65;;
11488;SDS011;5801;50.804;12.638;2024-02-28T03:44:41;18.52;;;10.20;;
11488;SDS011;5801;50.804;12.638;2024-02-28T03:47:07;20.40;;;9.60;;
11488;SDS011;5801;50.804;12.638;2024-02-28T03:49:33;20.60;;;9.63;;
11488;SDS011;5801;50.804;12.638;2024-02-28T03:51:59;19.48;;;9.75;;
11488;SDS011;5801;50.804;12.638;2024-02-28T03:54:26;17.02;;;8.35;;
11488;SDS011;5801;50.804;12.638;2024-02-28T03:56:52;24.33;;;10.18;;
11488;SDS011;5801;50.804;12.638;2024-02-28T03:59:18;23.95;;;11.52;;
11488;SDS011;5801;50.804;12.638;2024-02-28T04:01:44;18.40;;;9.65;;
11488;SDS011;5801;50.804;12.638;2024-02-28T04:04:10;22.60;;;8.90;;
11488;SDS011;5801;50.804;12.638;2024-02-28T04:06:36;19.88;;;9.63;;
11488;SDS011;5801;50.804;12.638;2024-02-28T04:09:02;16.25;;;7.40;;
11488;SDS011;5801;50.804;12.638;2024-02-28T04:11:28;20.52;;;9.40;;
11488;SDS011;5801;50.804;12.638;2024-02-28T04:13:54;15.77;;;7.40;;
11488;SDS011;5801;50.804;12.638;2024-02-28T04:16:20;13.60;;;7.32;;
11488;SDS011;5801;50.804;12.638;2024-02-28T04:18:46;15.25;;;6.93;;
11488;SDS011;5801;50.804;12.638;2024-02-28T04:21:13;15.55;;;7.85;;
11488;SDS011;5801;50.804;12.638;2024-02-28T04:23:39;12.38;;;6.97;;
11488;SDS011;5801;50.804;12.638;2024-02-28T04:26:06;15.75;;;7.40;;
11488;SDS011;5801;50.804;12.638;2024-02-28T04:28:32;14.15;;;7.55;;
11488;SDS011;5801;50.804;12.638;2024-02-28T04:30:58;13.57;;;6.90;;
11488;SDS011;5801;50.804;12.638;2024-02-28T04:33:24;14.25;;;6.80;;
11488;SDS011;5801;50.804;12.638;2024-02-28T04:35:49;17.42;;;8.35;;
11488;SDS011;5801;50.804;12.638;2024-02-28T04:38:15;15.38;;;7.55;;
11488;SDS011;5801;50.804;12.638;2024-02-28T04:40:41;15.35;;;7.15;;
11488;SDS011;5801;50.804;12.638;2024-02-28T04:43:08;15.02;;;6.10;;
11488;SDS011;5801;50.804;12.638;2024-02-28T04:45:34;13.30;;;6.80;;
11488;SDS011;5801;50.804;12.638;2024-02-28T04:48:00;18.80;;;7.95;;
11488;SDS011;5801;50.804;12.638;2024-02-28T04:50:26;13.70;;;8.00;;
11488;SDS011;5801;50.804;12.638;2024-02-28T04:52:52;14.85;;;7.47;;
11488;SDS011;5801;50.804;12.638;2024-02-28T04:55:18;15.45;;;7.38;;
11488;SDS011;5801;50.804;12.638;2024-02-28T04:57:44;15.52;;;7.80;;
11488;SDS011;5801;50.804;12.638;2024-02-28T05:00:10;18.33;;;7.70;;
11488;SDS011;5801;50.804;12.638;2024-02-28T05:02:37;13.25;;;7.38;;
11488;SDS011;5801;50.804;12.638;2024-02-28T05:05:03;13.70;;;7.32;;
11488;SDS011;5801;50.804;12.638;2024-02-28T05:07:29;16.48;;;7.63;;
11488;SDS011;5801;50.804;12.638;2024-02-28T05:09:55;18.05;;;7.40;;
11488;SDS011;5801;50.804;12.638;2024-02-28T05:12:21;14.15;;;7.90;;
11488;SDS011;5801;50.804;12.638;2024-02-28T05:14:47;18.30;;;8.52;;
11488;SDS011;5801;50.804;12.638;2024-02-28T05:17:13;25.20;;;9.15;;
11488;SDS011;5801;50.804;12.638;2024-02-28T05:19:39;15.75;;;8.05;;
11488;SDS011;5801;50.804;12.638;2024-02-28T05:22:05;22.63;;;9.00;;
11488;SDS011;5801;50.804;12.638;2024-02-28T05:24:31;19.13;;;8.27;;
11488;SDS011;5801;50.804;12.638;2024-02-28T05:26:57;18.60;;;7.93;;
11488;SDS011;5801;50.804;12.638;2024-02-28T05:29:24;27.27;;;8.60;;
11488;SDS011;5801;50.804;12.638;2024-02-28T05:31:51;16.88;;;8.07;;
11488;SDS011;5801;50.804;12.638;2024-02-28T05:34:16;21.17;;;8.05;;
11488;SDS011;5801;50.804;12.638;2024-02-28T05:36:42;21.50;;;8.20;;
11488;SDS011;5801;50.804;12.638;2024-02-28T05:39:08;16.48;;;8.75;;
11488;SDS011;5801;50.804;12.638;2024-02-28T05:41:34;13.75;;;6.60;;
11488;SDS011;5801;50.804;12.638;2024-02-28T05:44:00;19.02;;;7.90;;
11488;SDS011;5801;50.804;12.638;2024-02-28T05:46:26;17.70;;;7.55;;
11488;SDS011;5801;50.804;12.638;2024-02-28T05:48:52;16.75;;;7.05;;
11488;SDS011;5801;50.804;12.638;2024-02-28T05:51:18;17.55;;;7.13;;
11488;SDS011;5801;50.804;12.638;2024-02-28T05:53:45;15.55;;;8.15;;
11488;SDS011;5801;50.804;12.638;2024-02-28T05:56:11;19.98;;;7.97;;
11488;SDS011;5801;50.804;12.638;2024-02-28T05:58:42;15.18;;;7.43;;
11488;SDS011;5801;50.804;12.638;2024-02-28T06:01:09;17.15;;;7.38;;
11488;SDS011;5801;50.804;12.638;2024-02-28T06:03:38;19.35;;;6.95;;
11488;SDS011;5801;50.804;12.638;2024-02-28T06:06:04;17.42;;;7.68;;
11488;SDS011;5801;50.804;12.638;2024-02-28T06:08:34;14.80;;;8.43;;
11488;SDS011;5801;50.804;12.638;2024-02-28T06:11:05;19.00;;;9.23;;
11488;SDS011;5801;50.804;12.638;2024-02-28T06:13:31;18.88;;;8.60;;
11488;SDS011;5801;50.804;12.638;2024-02-28T06:15:58;28.15;;;10.82;;
11488;SDS011;5801;50.804;12.638;2024-02-28T06:18:25;26.88;;;11.63;;
11488;SDS011;5801;50.804;12.638;2024-02-28T06:20:52;23.48;;;10.63;;
11488;SDS011;5801;50.804;12.638;2024-02-28T06:23:21;30.15;;;11.77;;
11488;SDS011;5801;50.804;12.638;2024-02-28T06:25:47;25.73;;;12.23;;
11488;SDS011;5801;50.804;12.638;2024-02-28T06:28:13;31.17;;;11.23;;
11488;SDS011;5801;50.804;12.638;2024-02-28T06:30:40;35.78;;;12.07;;
11488;SDS011;5801;50.804;12.638;2024-02-28T06:33:06;31.63;;;12.40;;
11488;SDS011;5801;50.804;12.638;2024-02-28T06:35:33;39.83;;;12.52;;
11488;SDS011;5801;50.804;12.638;2024-02-28T06:38:00;34.20;;;12.88;;
11488;SDS011;5801;50.804;12.638;2024-02-28T06:40:26;29.48;;;12.20;;
11488;SDS011;5801;50.804;12.638;2024-02-28T06:42:53;26.20;;;10.68;;
11488;SDS011;5801;50.804;12.638;2024-02-28T06:45:19;31.33;;;12.68;;
11488;SDS011;5801;50.804;12.638;2024-02-28T06:47:46;48.25;;;13.38;;
11488;SDS011;5801;50.804;12.638;2024-02-28T06:50:11;37.03;;;12.25;;
11488;SDS011;5801;50.804;12.638;2024-02-28T06:52:37;38.88;;;12.10;;
11488;SDS011;5801;50.804;12.638;2024-02-28T06:55:03;36.55;;;12.15;;
11488;SDS011;5801;50.804;12.638;2024-02-28T06:57:35;30.63;;;12.73;;
11488;SDS011;5801;50.804;12.638;2024-02-28T07:00:07;30.83;;;13.15;;
11488;SDS011;5801;50.804;12.638;2024-02-28T07:02:35;43.85;;;12.68;;
11488;SDS011;5801;50.804;12.638;2024-02-28T07:05:01;39.75;;;14.02;;
11488;SDS011;5801;50.804;12.638;2024-02-28T07:07:31;37.75;;;16.88;;
11488;SDS011;5801;50.804;12.638;2024-02-28T07:09:58;45.47;;;18.38;;
11488;SDS011;5801;50.804;12.638;2024-02-28T07:12:24;45.30;;;14.77;;
11488;SDS011;5801;50.804;12.638;2024-02-28T07:14:50;72.80;;;26.35;;
11488;SDS011;5801;50.804;12.638;2024-02-28T07:17:16;39.70;;;15.35;;
11488;SDS011;5801;50.804;12.638;2024-02-28T07:19:42;54.58;;;15.82;;
11488;SDS011;5801;50.804;12.638;2024-02-28T07:22:08;59.53;;;16.23;;
11488;SDS011;5801;50.804;12.638;2024-02-28T07:24:35;59.55;;;18.70;;
11488;SDS011;5801;50.804;12.638;2024-02-28T07:27:02;46.83;;;15.15;;
11488;SDS011;5801;50.804;12.638;2024-02-28T07:29:28;50.88;;;13.50;;
11488;SDS011;5801;50.804;12.638;2024-02-28T07:31:54;36.88;;;13.20;;
11488;SDS011;5801;50.804;12.638;2024-02-28T07:34:20;52.33;;;14.95;;
11488;SDS011;5801;50.804;12.638;2024-02-28T07:36:46;49.40;;;12.65;;
11488;SDS011;5801;50.804;12.638;2024-02-28T07:39:12;52.63;;;14.05;;
11488;SDS011;5801;50.804;12.638;2024-02-28T07:41:38;40.47;;;11.25;;
11488;SDS011;5801;50.804;12.638;2024-02-28T07:44:04;31.40;;;11.80;;
11488;SDS011;5801;50.804;12.638;2024-02-28T07:46:32;31.80;;;11.57;;
11488;SDS011;5801;50.804;12.638;2024-02-28T07:48:57;26.67;;;11.95;;
11488;SDS011;5801;50.804;12.638;2024-02-28T07:51:23;43.53;;;13.07;;
11488;SDS011;5801;50.804;12.638;2024-02-28T07:53:49;31.83;;;13.07;;
11488;SDS011;5801;50.804;12.638;2024-02-28T07:56:19;34.35;;;14.23;;
11488;SDS011;5801;50.804;12.638;2024-02-28T07:58:45;35.92;;;14.80;;
11488;SDS011;5801;50.804;12.638;2024-02-28T08:01:11;28.52;;;13.20;;
11488;SDS011;5801;50.804;12.638;2024-02-28T08:03:37;32.75;;;13.23;;
11488;SDS011;5801;50.804;12.638;2024-02-28T08:06:03;31.13;;;13.18;;
11488;SDS011;5801;50.804;12.638;2024-02-28T08:08:29;39.95;;;12.25;;
11488;SDS011;5801;50.804;12.638;2024-02-28T08:10:55;45.70;;;13.55;;
11488;SDS011;5801;50.804;12.638;2024-02-28T08:13:21;31.25;;;14.10;;
11488;SDS011;5801;50.804;12.638;2024-02-28T08:15:47;52.20;;;14.25;;
11488;SDS011;5801;50.804;12.638;2024-02-28T08:18:13;36.67;;;13.70;;
11488;SDS011;5801;50.804;12.638;2024-02-28T08:20:39;34.67;;;14.18;;
11488;SDS011;5801;50.804;12.638;2024-02-28T08:23:05;27.38;;;13.45;;
11488;SDS011;5801;50.804;12.638;2024-02-28T08:25:31;38.15;;;14.23;;
11488;SDS011;5801;50.804;12.638;2024-02-28T08:27:57;32.33;;;12.77;;
11488;SDS011;5801;50.804;12.638;2024-02-28T08:30:23;32.22;;;13.30;;
11488;SDS011;5801;50.804;12.638;2024-02-28T08:32:50;27.38;;;12.93;;
11488;SDS011;5801;50.804;12.638;2024-02-28T08:35:17;31.25;;;12.63;;
11488;SDS011;5801;50.804;12.638;2024-02-28T08:37:43;38.70;;;13.05;;
11488;SDS011;5801;50.804;12.638;2024-02-28T08:40:10;34.35;;;13.77;;
11488;SDS011;5801;50.804;12.638;2024-02-28T08:42:36;29.70;;;12.32;;
11488;SDS011;5801;50.804;12.638;2024-02-28T08:45:02;33.00;;;11.98;;
11488;SDS011;5801;50.804;12.638;2024-02-28T08:47:30;26.35;;;12.38;;
11488;SDS011;5801;50.804;12.638;2024-02-28T08:49:57;27.70;;;10.10;;
11488;SDS011;5801;50.804;12.638;2024-02-28T08:52:22;24.88;;;10.23;;
11488;SDS011;5801;50.804;12.638;2024-02-28T08:54:48;25.27;;;9.77;;
11488;SDS011;5801;50.804;12.638;2024-02-28T08:57:14;22.83;;;10.15;;
11488;SDS011;5801;50.804;12.638;2024-02-28T08:59:41;33.88;;;11.70;;
11488;SDS011;5801;50.804;12.638;2024-02-28T09:02:07;26.00;;;10.98;;
11488;SDS011;5801;50.804;12.638;2024-02-28T09:04:33;24.25;;;10.30;;
11488;SDS011;5801;50.804;12.638;2024-02-28T09:06:59;19.58;;;9.02;;
11488;SDS011;5801;50.804;12.638;2024-02-28T09:09:26;25.67;;;9.82;;
11488;SDS011;5801;50.804;12.638;2024-02-28T09:11:53;18.95;;;9.10;;
11488;SDS011;5801;50.804;12.638;2024-02-28T09:14:19;21.38;;;9.48;;
11488;SDS011;5801;50.804;12.638;2024-02-28T09:16:45;22.70;;;10.25;;
11488;SDS011;5801;50.804;12.638;2024-02-28T09:19:12;20.35;;;9.55;;
11488;SDS011;5801;50.804;12.638;2024-02-28T09:21:38;21.70;;;9.30;;
11488;SDS011;5801;50.804;12.638;2024-02-28T09:24:04;19.42;;;9.13;;
11488;SDS011;5801;50.804;12.638;2024-02-28T09:26:30;30.98;;;10.18;;
11488;SDS011;5801;50.804;12.638;2024-02-28T09:28:56;22.83;;;9.98;;
11488;SDS011;5801;50.804;12.638;2024-02-28T09:31:22;23.33;;;11.82;;
11488;SDS011;5801;50.804;12.638;2024-02-28T09:33:48;26.08;;;10.07;;
11488;SDS011;5801;50.804;12.638;2024-02-28T09:36:14;22.67;;;10.48;;
11488;SDS011;5801;50.804;12.638;2024-02-28T09:38:40;29.13;;;11.60;;
11488;SDS011;5801;50.804;12.638;2024-02-28T09:41:07;25.50;;;10.20;;
11488;SDS011;5801;50.804;12.638;2024-02-28T09:43:40;31.35;;;10.60;;
11488;SDS011;5801;50.804;12.638;2024-02-28T09:46:07;27.55;;;10.88;;
11488;SDS011;5801;50.804;12.638;2024-02-28T09:48:38;31.00;;;10.82;;
11488;SDS011;5801;50.804;12.638;2024-02-28T09:51:05;24.92;;;10.57;;
11488;SDS011;5801;50.804;12.638;2024-02-28T09:53:31;20.77;;;9.25;;
11488;SDS011;5801;50.804;12.638;2024-02-28T09:55:57;24.67;;;10.82;;
11488;SDS011;5801;50.804;12.638;2024-02-28T09:58:23;21.95;;;10.65;;
11488;SDS011;5801;50.804;12.638;2024-02-28T10:00:51;23.80;;;10.43;;
11488;SDS011;5801;50.804;12.638;2024-02-28T10:03:20;24.60;;;9.88;;
11488;SDS011;5801;50.804;12.638;2024-02-28T10:05:48;23.73;;;10.60;;
11488;SDS011;5801;50.804;12.638;2024-02-28T10:08:14;23.90;;;9.73;;
11488;SDS011;5801;50.804;12.638;2024-02-28T10:10:47;20.52;;;10.40;;
11488;SDS011;5801;50.804;12.638;2024-02-28T10:13:15;23.27;;;10.45;;
11488;SDS011;5801;50.804;12.638;2024-02-28T10:15:41;28.33;;;10.98;;
11488;SDS011;5801;50.804;12.638;2024-02-28T10:18:07;25.48;;;10.60;;
11488;SDS011;5801;50.804;12.638;2024-02-28T10:20:33;21.98;;;10.07;;
11488;SDS011;5801;50.804;12.638;2024-02-28T10:22:59;20.33;;;9.35;;
11488;SDS011;5801;50.804;12.638;2024-02-28T10:25:28;25.55;;;10.63;;
11488;SDS011;5801;50.804;12.638;2024-02-28T10:27:58;26.13;;;9.57;;
11488;SDS011;5801;50.804;12.638;2024-02-28T10:30:25;28.55;;;10.50;;
11488;SDS011;5801;50.804;12.638;2024-02-28T10:32:51;22.23;;;10.50;;
11488;SDS011;5801;50.804;12.638;2024-02-28T10:35:17;24.08;;;10.90;;
11488;SDS011;5801;50.804;12.638;2024-02-28T10:37:51;25.33;;;11.57;;
11488;SDS011;5801;50.804;12.638;2024-02-28T10:40:18;24.42;;;11.15;;
11488;SDS011;5801;50.804;12.638;2024-02-28T10:42:46;20.90;;;9.10;;
11488;SDS011;5801;50.804;12.638;2024-02-28T10:45:13;27.10;;;11.02;;
11488;SDS011;5801;50.804;12.638;2024-02-28T10:47:42;22.23;;;9.65;;
11488;SDS011;5801;50.804;12.638;2024-02-28T10:50:08;24.08;;;9.95;;
11488;SDS011;5801;50.804;12.638;2024-02-28T10:52:35;31.55;;;10.18;;
11488;SDS011;5801;50.804;12.638;2024-02-28T10:55:08;24.30;;;10.05;;
11488;SDS011;5801;50.804;12.638;2024-02-28T10:57:35;24.73;;;11.18;;
11488;SDS011;5801;50.804;12.638;2024-02-28T11:00:02;21.40;;;10.07;;
11488;SDS011;5801;50.804;12.638;2024-02-28T11:02:33;21.63;;;10.50;;
11488;SDS011;5801;50.804;12.638;2024-02-28T11:04:59;25.08;;;10.73;;
11488;SDS011;5801;50.804;12.638;2024-02-28T11:07:26;23.00;;;10.80;;
11488;SDS011;5801;50.804;12.638;2024-02-28T11:09:55;19.52;;;8.75;;
11488;SDS011;5801;50.804;12.638;2024-02-28T11:12:27;23.15;;;9.82;;
11488;SDS011;5801;50.804;12.638;2024-02-28T11:14:57;20.63;;;10.05;;
11488;SDS011;5801;50.804;12.638;2024-02-28T11:17:27;24.80;;;9.68;;
11488;SDS011;5801;50.804;12.638;2024-02-28T11:19:57;21.52;;;10.15;;
11488;SDS011;5801;50.804;12.638;2024-02-28T11:22:23;23.75;;;10.30;;
11488;SDS011;5801;50.804;12.638;2024-02-28T11:24:53;19.42;;;8.80;;
11488;SDS011;5801;50.804;12.638;2024-02-28T11:27:20;18.27;;;8.20;;
11488;SDS011;5801;50.804;12.638;2024-02-28T11:29:46;18.20;;;9.38;;
11488;SDS011;5801;50.804;12.638;2024-02-28T11:32:14;23.20;;;9.98;;
11488;SDS011;5801;50.804;12.638;2024-02-28T11:34:41;22.67;;;9.13;;
11488;SDS011;5801;50.804;12.638;2024-02-28T11:37:08;18.67;;;8.90;;
11488;SDS011;5801;50.804;12.638;2024-02-28T11:39:34;21.88;;;8.68;;
11488;SDS011;5801;50.804;12.638;2024-02-28T11:42:16;19.83;;;9.07;;
11488;SDS011;5801;50.804;12.638;2024-02-28T11:44:43;18.58;;;7.80;;
11488;SDS011;5801;50.804;12.638;2024-02-28T11:47:17;14.55;;;7.05;;
11488;SDS011;5801;50.804;12.638;2024-02-28T11:49:44;14.63;;;8.30;;
11488;SDS011;5801;50.804;12.638;2024-02-28T11:52:10;14.63;;;7.22;;
11488;SDS011;5801;50.804;12.638;2024-02-28T11:54:37;16.67;;;7.82;;
11488;SDS011;5801;50.804;12.638;2024-02-28T11:57:04;17.13;;;8.02;;
11488;SDS011;5801;50.804;12.638;2024-02-28T11:59:29;15.40;;;8.02;;
11488;SDS011;5801;50.804;12.638;2024-02-28T12:01:55;15.27;;;7.38;;
11488;SDS011;5801;50.804;12.638;2024-02-28T12:04:23;15.23;;;8.05;;
11488;SDS011;5801;50.804;12.638;2024-02-28T12:06:50;13.85;;;8.07;;
11488;SDS011;5801;50.804;12.638;2024-02-28T12:09:16;12.65;;;7.63;;
11488;SDS011;5801;50.804;12.638;2024-02-28T12:11:43;16.27;;;7.93;;
11488;SDS011;5801;50.804;12.638;2024-02-28T12:14:10;13.93;;;7.60;;
11488;SDS011;5801;50.804;12.638;2024-02-28T12:16:37;17.75;;;8.27;;
11488;SDS011;5801;50.804;12.638;2024-02-28T12:19:08;15.85;;;7.82;;
11488;SDS011;5801;50.804;12.638;2024-02-28T12:21:38;14.43;;;7.38;;
11488;SDS011;5801;50.804;12.638;2024-02-28T12:24:05;18.90;;;8.10;;
11488;SDS011;5801;50.804;12.638;2024-02-28T12:26:33;17.83;;;7.50;;
11488;SDS011;5801;50.804;12.638;2024-02-28T12:28:59;15.02;;;7.90;;
11488;SDS011;5801;50.804;12.638;2024-02-28T12:31:26;17.20;;;7.53;;
11488;SDS011;5801;50.804;12.638;2024-02-28T12:33:52;16.85;;;7.85;;
11488;SDS011;5801;50.804;12.638;2024-02-28T12:36:19;13.52;;;7.32;;
11488;SDS011;5801;50.804;12.638;2024-02-28T12:38:45;16.25;;;7.25;;
11488;SDS011;5801;50.804;12.638;2024-02-28T12:41:11;16.35;;;7.82;;
11488;SDS011;5801;50.804;12.638;2024-02-28T12:43:38;17.20;;;8.13;;
11488;SDS011;5801;50.804;12.638;2024-02-28T12:46:04;16.45;;;8.55;;
11488;SDS011;5801;50.804;12.638;2024-02-28T12:48:30;14.65;;;7.90;;
11488;SDS011;5801;50.804;12.638;2024-02-28T12:51:02;17.38;;;8.30;;
11488;SDS011;5801;50.804;12.638;2024-02-28T12:53:30;19.35;;;7.68;;
11488;SDS011;5801;50.804;12.638;2024-02-28T12:55:56;19.70;;;8.65;;
11488;SDS011;5801;50.804;12.638;2024-02-28T12:58:22;16.67;;;7.57;;
11488;SDS011;5801;50.804;12.638;2024-02-28T13:00:48;17.25;;;8.50;;
11488;SDS011;5801;50.804;12.638;2024-02-28T13:03:15;21.40;;;8.73;;
11488;SDS011;5801;50.804;12.638;2024-02-28T13:05:42;15.07;;;7.10;;
11488;SDS011;5801;50.804;12.638;2024-02-28T13:08:08;16.83;;;7.60;;
11488;SDS011;5801;50.804;12.638;2024-02-28T13:10:34;17.67;;;7.18;;
11488;SDS011;5801;50.804;12.638;2024-02-28T13:13:04;15.43;;;7.88;;
11488;SDS011;5801;50.804;12.638;2024-02-28T13:15:31;16.50;;;8.18;;
11488;SDS011;5801;50.804;12.638;2024-02-28T13:17:57;17.13;;;8.35;;
11488;SDS011;5801;50.804;12.638;2024-02-28T13:20:23;15.65;;;7.50;;
11488;SDS011;5801;50.804;12.638;2024-02-28T13:22:49;14.10;;;6.88;;
11488;SDS011;5801;50.804;12.638;2024-02-28T13:25:16;15.85;;;6.95;;
11488;SDS011;5801;50.804;12.638;2024-02-28T13:27:44;14.32;;;6.20;;
11488;SDS011;5801;50.804;12.638;2024-02-28T13:30:13;13.18;;;6.50;;
11488;SDS011;5801;50.804;12.638;2024-02-28T13:32:40;17.42;;;6.78;;
11488;SDS011;5801;50.804;12.638;2024-02-28T13:35:05;15.80;;;7.85;;
11488;SDS011;5801;50.804;12.638;2024-02-28T13:37:32;14.27;;;6.93;;
11488;SDS011;5801;50.804;12.638;2024-02-28T13:39:58;12.20;;;6.85;;
11488;SDS011;5801;50.804;12.638;2024-02-28T13:42:25;12.38;;;6.18;;
11488;SDS011;5801;50.804;12.638;2024-02-28T13:44:51;14.55;;;6.65;;
11488;SDS011;5801;50.804;12.638;2024-02-28T13:47:17;17.45;;;7.72;;
11488;SDS011;5801;50.804;12.638;2024-02-28T13:49:43;13.27;;;6.60;;
11488;SDS011;5801;50.804;12.638;2024-02-28T13:52:09;15.57;;;7.07;;
11488;SDS011;5801;50.804;12.638;2024-02-28T13:54:35;12.20;;;6.40;;
11488;SDS011;5801;50.804;12.638;2024-02-28T13:57:01;15.20;;;6.45;;
11488;SDS011;5801;50.804;12.638;2024-02-28T13:59:29;13.95;;;6.68;;
11488;SDS011;5801;50.804;12.638;2024-02-28T14:01:55;12.15;;;6.88;;
11488;SDS011;5801;50.804;12.638;2024-02-28T14:04:22;14.25;;;5.65;;
11488;SDS011;5801;50.804;12.638;2024-02-28T14:06:47;14.10;;;6.78;;
11488;SDS011;5801;50.804;12.638;2024-02-28T14:09:14;18.02;;;7.20;;
11488;SDS011;5801;50.804;12.638;2024-02-28T14:11:40;15.77;;;6.82;;
11488;SDS011;5801;50.804;12.638;2024-02-28T14:14:06;14.32;;;6.93;;
11488;SDS011;5801;50.804;12.638;2024-02-28T14:16:32;18.33;;;6.85;;
11488;SDS011;5801;50.804;12.638;2024-02-28T14:18:58;11.98;;;5.88;;
11488;SDS011;5801;50.804;12.638;2024-02-28T14:21:25;14.32;;;6.60;;
11488;SDS011;5801;50.804;12.638;2024-02-28T14:23:51;15.40;;;6.75;;